createdAt,value
2018-03-04T00:02:05.731Z,112.97
2018-03-04T00:07:12.317Z,116.35
2018-03-04T00:12:15.296Z,111.37
2018-03-04T00:17:18.051Z,110.07
2018-03-04T00:27:51.472Z,112.65
2018-03-04T00:32:54.320Z,112.50
2018-03-04T00:37:57.284Z,113.62
2018-03-04T00:43:00.082Z,113.50
2018-03-04T00:48:02.882Z,111.03
2018-03-04T00:53:05.694Z,109.10
2018-03-04T00:58:08.539Z,105.32
2018-03-04T01:03:11.342Z,99.82
2018-03-04T01:08:14.124Z,106.20
2018-03-04T01:13:17.090Z,107.55
2018-03-04T01:18:20.808Z,106.53
2018-03-04T01:23:24.567Z,112.53
2018-03-04T01:28:27.474Z,111.93
2018-03-04T01:33:30.648Z,109.18
2018-03-04T01:38:34.189Z,106.68
2018-03-04T01:43:37.290Z,112.95
2018-03-04T01:48:40.518Z,102.10
2018-03-04T01:53:43.659Z,99.47
2018-03-04T01:58:46.975Z,101.47
2018-03-04T02:03:49.774Z,111.97
2018-03-04T02:08:52.621Z,106.50
2018-03-04T02:13:55.481Z,100.85
2018-03-04T02:18:58.696Z,109.43
2018-03-04T02:24:01.486Z,102.65
2018-03-04T02:29:04.944Z,107.12
2018-03-04T02:34:08.458Z,102.78
2018-03-04T02:39:11.380Z,102.40
2018-03-04T02:44:15.054Z,103.90
2018-03-04T02:49:18.982Z,109.37
2018-03-04T02:54:22.220Z,101.07
2018-03-04T02:59:25.437Z,104.03
2018-03-04T03:04:28.241Z,114.32
2018-03-04T03:09:31.064Z,111.20
2018-03-04T03:14:33.867Z,106.13
2018-03-04T03:19:36.763Z,112.07
2018-03-04T03:24:39.656Z,105.93
2018-03-04T03:29:42.621Z,114.20
2018-03-04T03:34:45.804Z,102.87
2018-03-04T03:39:49.457Z,106.30
2018-03-04T03:44:53.103Z,103.55
2018-03-04T03:49:56.392Z,111.43
2018-03-04T03:54:59.610Z,116.78
2018-03-04T04:00:03.433Z,116.30
2018-03-04T06:38:12.045Z,167.30
2018-03-04T06:43:16.237Z,143.27
2018-03-04T06:48:19.314Z,129.97
2018-03-04T07:11:42.864Z,132.68
2018-03-04T07:16:46.013Z,125.12
2018-03-04T07:21:49.202Z,127.87
2018-03-04T07:26:55.883Z,119.75
2018-03-04T07:31:58.726Z,109.37
2018-03-04T07:37:01.705Z,150.40
2018-03-04T07:42:05.173Z,141.90
2018-03-04T07:47:10.616Z,117.50
2018-03-04T07:52:13.551Z,118.68
2018-03-04T07:57:17.093Z,112.77
2018-03-04T08:02:19.918Z,113.85
2018-03-04T08:07:24.632Z,114.13
2018-03-04T08:12:28.019Z,121.15
2018-03-04T08:17:34.492Z,113.12
2018-03-04T08:22:39.209Z,108.40
2018-03-04T08:27:54.086Z,110.35
2018-03-04T08:32:58.174Z,112.05
2018-03-04T08:38:06.556Z,108.90
2018-03-04T08:43:34.938Z,96.07
2018-03-04T08:54:15.313Z,93.70
2018-03-04T08:59:22.385Z,94.87
2018-03-04T09:04:25.328Z,92.70
2018-03-04T09:09:28.224Z,86.18
2018-03-04T09:14:31.082Z,87.00
2018-03-04T09:19:34.388Z,84.47
2018-03-04T09:24:37.829Z,78.07
2018-03-04T09:29:42.045Z,85.75
2018-03-04T09:34:45.193Z,76.30
2018-03-04T09:39:49.346Z,80.62
2018-03-04T09:44:53.951Z,71.75
2018-03-04T09:49:57.264Z,63.25
2018-03-04T09:55:04.952Z,63.28
2018-03-04T10:00:09.094Z,59.28
2018-03-04T10:05:12.253Z,59.85
2018-03-04T10:10:17.886Z,61.63
2018-03-04T10:15:20.714Z,65.60
2018-03-04T10:20:25.063Z,63.17
2018-03-04T10:25:29.090Z,61.83
2018-03-04T10:30:31.906Z,65.60
2018-03-04T10:35:35.893Z,66.43
2018-03-04T10:40:39.864Z,65.68
2018-03-04T10:45:42.843Z,62.60
2018-03-04T10:56:25.147Z,59.22
2018-03-04T11:01:45.211Z,58.13
2018-03-04T11:06:48.454Z,55.50
2018-03-04T11:11:55.154Z,55.60
2018-03-04T11:16:58.318Z,53.10
2018-03-04T11:22:06.760Z,51.63
2018-03-04T11:27:14.926Z,48.50
2018-03-04T11:32:18.940Z,48.65
2018-03-04T11:37:22.877Z,42.55
2018-03-04T11:42:26.778Z,48.57
2018-03-04T11:47:29.629Z,42.20
2018-03-04T11:52:33.552Z,43.58
2018-03-04T11:57:37.217Z,43.30
2018-03-04T12:02:41.131Z,40.47
2018-03-04T12:07:44.313Z,43.67
2018-03-04T12:12:48.585Z,44.00
2018-03-04T12:17:51.375Z,41.03
2018-03-04T12:22:54.191Z,37.63
2018-03-04T12:27:57.120Z,39.08
2018-03-04T12:38:31.058Z,38.15
2018-03-04T12:43:36.812Z,43.23
2018-03-04T12:48:41.209Z,43.10
2018-03-04T12:53:45.012Z,47.10
2018-03-04T12:58:47.977Z,48.75
2018-03-04T13:03:51.141Z,45.33
2018-03-04T13:08:56.170Z,45.88
2018-03-04T13:13:59.063Z,52.47
2018-03-04T13:19:02.702Z,48.15
2018-03-04T13:24:08.862Z,49.22
2018-03-04T13:34:22.245Z,53.87
2018-03-04T13:39:25.297Z,52.13
2018-03-04T13:44:28.143Z,54.05
2018-03-04T13:49:31.012Z,50.50
2018-03-04T13:54:37.944Z,50.55
2018-03-04T13:59:40.798Z,53.27
2018-03-04T14:04:43.572Z,50.35
2018-03-04T14:09:46.347Z,53.28
2018-03-04T14:14:49.137Z,52.40
2018-03-04T14:19:52.248Z,51.92
2018-03-04T14:24:55.039Z,51.53
2018-03-04T14:29:57.880Z,54.00
2018-03-04T14:35:04.635Z,48.30
2018-03-04T14:40:07.783Z,51.03
2018-03-04T14:45:13.411Z,48.45
2018-03-04T14:50:17.350Z,46.40
2018-03-04T14:55:21.273Z,44.50
2018-03-04T15:00:24.985Z,45.87
2018-03-04T15:05:28.818Z,46.57
2018-03-04T15:10:38.143Z,47.20
2018-03-04T15:15:41.265Z,45.50
2018-03-04T15:20:45.598Z,42.62
2018-03-04T15:26:01.516Z,41.88
2018-03-04T15:31:04.687Z,40.83
2018-03-04T15:36:08.040Z,43.57
2018-03-04T15:41:10.865Z,43.13
2018-03-04T15:46:14.461Z,44.83
2018-03-04T15:51:17.493Z,47.40
2018-03-04T15:56:21.236Z,46.45
2018-03-04T16:01:25.103Z,50.72
2018-03-04T16:06:27.899Z,50.90
2018-03-04T16:11:31.182Z,52.67
2018-03-04T16:16:34.060Z,52.70
2018-03-04T16:21:36.903Z,49.33
2018-03-04T16:26:39.715Z,46.10
2018-03-04T16:31:44.611Z,45.27
2018-03-04T16:36:47.772Z,49.25
2018-03-04T16:41:50.594Z,50.60
2018-03-04T16:46:53.674Z,49.33
2018-03-04T16:51:58.065Z,43.87
2018-03-04T16:57:01.960Z,45.28
2018-03-04T17:02:07.732Z,43.50
2018-03-04T17:07:10.881Z,40.72
2018-03-04T17:12:13.662Z,45.50
2018-03-04T17:17:16.805Z,40.80
2018-03-04T17:22:19.800Z,39.60
2018-03-04T17:27:22.638Z,37.45
2018-03-04T17:32:25.489Z,34.30
2018-03-04T17:37:29.111Z,38.17
2018-03-04T17:42:31.951Z,35.28
2018-03-04T17:47:34.889Z,33.70
2018-03-04T17:52:37.819Z,33.50
2018-03-04T17:57:40.772Z,35.47
2018-03-04T18:02:44.321Z,36.15
2018-03-04T18:07:47.169Z,36.80
2018-03-04T18:12:51.409Z,35.83
2018-03-04T18:28:54.369Z,27.90
2018-03-04T18:33:57.180Z,27.20
2018-03-04T18:39:01.068Z,26.23
2018-03-04T18:44:03.958Z,24.90
2018-03-04T18:49:07.160Z,27.00
2018-03-04T18:54:18.040Z,27.87
2018-03-04T18:59:21.187Z,28.15
2018-03-04T19:04:24.097Z,27.55
2018-03-04T19:09:26.916Z,26.00
2018-03-04T19:14:30.640Z,28.67
2018-03-04T19:19:33.879Z,28.27
2018-03-04T19:24:37.009Z,27.33
2018-03-04T19:29:39.940Z,28.67
2018-03-04T19:34:42.823Z,28.23
2018-03-04T19:39:45.787Z,29.20
2018-03-04T19:44:49.433Z,30.37
2018-03-04T19:49:53.484Z,28.62
2018-03-04T19:54:56.577Z,32.10
2018-03-04T20:00:00.260Z,31.98
2018-03-04T20:05:03.178Z,38.47
2018-03-04T20:10:10.010Z,33.17
2018-03-04T20:15:13.230Z,34.87
2018-03-04T20:20:17.907Z,32.28
2018-03-04T20:25:22.069Z,38.22
2018-03-04T20:30:25.048Z,32.83
2018-03-04T20:35:28.110Z,32.05
2018-03-04T20:40:35.869Z,35.20
2018-03-04T20:45:38.893Z,34.25
2018-03-04T20:50:47.713Z,34.92
2018-03-04T20:55:56.813Z,37.40
2018-03-04T21:01:05.448Z,38.03
2018-03-04T21:06:10.075Z,37.10
2018-03-04T21:11:25.262Z,37.10
2018-03-04T21:22:08.494Z,41.20
2018-03-04T21:27:22.450Z,40.15
2018-03-04T21:37:41.228Z,42.05
2018-03-04T21:48:11.058Z,42.25
2018-03-04T21:59:09.551Z,42.42
2018-03-04T22:04:15.023Z,48.40
2018-03-04T22:09:21.599Z,40.63
2018-03-04T22:14:24.469Z,42.92
2018-03-04T22:19:28.349Z,41.10
2018-03-04T22:24:36.458Z,40.30
2018-03-04T22:29:42.760Z,40.08
2018-03-04T22:34:46.665Z,44.00
2018-03-04T22:39:49.489Z,35.38
2018-03-04T22:45:02.186Z,38.70
2018-03-04T22:50:05.124Z,39.85
2018-03-04T22:55:08.062Z,46.60
2018-03-04T23:00:15.391Z,40.45
2018-03-04T23:05:20.183Z,44.03
2018-03-04T23:10:23.783Z,40.57
2018-03-04T23:15:26.951Z,42.65
2018-03-04T23:20:30.262Z,38.47
2018-03-04T23:25:37.529Z,43.83
2018-03-04T23:30:40.431Z,45.03
2018-03-04T23:35:44.629Z,41.22
2018-03-04T23:40:51.947Z,39.92
2018-03-04T23:45:56.052Z,36.55
2018-03-04T23:51:00.712Z,35.33
2018-03-04T23:56:05.967Z,34.88
